createdAt,value
2017-08-05T00:00:40.867Z,0
2017-08-05T00:01:29.938Z,0
2017-08-05T00:02:17.895Z,0
2017-08-05T00:03:06.067Z,0
2017-08-05T00:03:55.040Z,0
2017-08-05T00:04:43.083Z,0
2017-08-05T00:05:31.153Z,0
2017-08-05T00:06:20.117Z,0
2017-08-05T00:07:08.213Z,0
2017-08-05T00:07:56.335Z,0
2017-08-05T00:08:45.273Z,0
2017-08-05T00:09:33.364Z,0
2017-08-05T00:10:22.491Z,0
2017-08-05T00:11:17.238Z,0
2017-08-05T00:12:17.467Z,0
2017-08-05T00:13:12.585Z,0
2017-08-05T00:14:07.464Z,0
2017-08-05T00:15:07.505Z,0
2017-08-05T00:16:02.524Z,0
2017-08-05T00:16:57.651Z,0
2017-08-05T00:17:57.794Z,0
2017-08-05T00:18:52.580Z,0
2017-08-05T00:19:47.785Z,0
2017-08-05T00:20:48.858Z,0
2017-08-05T00:21:48.799Z,0
2017-08-05T00:22:48.790Z,0
2017-08-05T00:23:43.809Z,0
2017-08-05T00:24:38.028Z,0
2017-08-05T00:25:37.938Z,0
2017-08-05T00:26:32.949Z,0
2017-08-05T00:27:32.969Z,0
2017-08-05T00:28:27.054Z,0
2017-08-05T00:29:26.992Z,0
2017-08-05T00:30:22.050Z,0
2017-08-05T00:31:17.109Z,0
2017-08-05T00:32:06.174Z,0
2017-08-05T00:33:06.315Z,0
2017-08-05T00:33:54.198Z,0
2017-08-05T00:34:43.254Z,0
2017-08-05T00:35:31.395Z,0
2017-08-05T00:36:19.407Z,0
2017-08-05T00:37:08.408Z,0
2017-08-05T00:37:56.550Z,0
2017-08-05T00:38:50.478Z,0
2017-08-05T00:39:38.552Z,0
2017-08-05T00:40:33.049Z,0
2017-08-05T00:41:32.681Z,0
2017-08-05T00:42:27.550Z,0
2017-08-05T00:43:22.643Z,0
2017-08-05T00:44:23.714Z,0
2017-08-05T00:45:24.211Z,0
2017-08-05T00:46:23.778Z,0
2017-08-05T00:47:18.886Z,0
2017-08-05T00:48:12.828Z,0
2017-08-05T00:49:12.924Z,0
2017-08-05T00:50:13.019Z,0
2017-08-05T00:51:12.961Z,0
2017-08-05T00:52:13.008Z,0
2017-08-05T00:53:13.024Z,0
2017-08-05T00:54:13.417Z,0
2017-08-05T00:55:08.037Z,0
2017-08-05T00:56:02.149Z,0
2017-08-05T00:57:02.123Z,0
2017-08-05T00:57:57.215Z,0
2017-08-05T00:58:57.197Z,0
2017-08-05T00:59:51.432Z,0
2017-08-05T01:00:52.335Z,0
2017-08-05T01:01:53.341Z,0
2017-08-05T01:02:48.256Z,0
2017-08-05T01:03:42.431Z,0
2017-08-05T01:04:42.470Z,0
2017-08-05T01:05:37.486Z,0
2017-08-05T01:06:37.476Z,0
2017-08-05T01:07:37.511Z,0
2017-08-05T01:08:43.517Z,0
2017-08-05T01:09:38.515Z,0
2017-08-05T01:10:38.531Z,0
2017-08-05T01:11:33.618Z,0
2017-08-05T01:12:28.627Z,0
2017-08-05T01:13:29.750Z,0
2017-08-05T01:14:29.798Z,0
2017-08-05T01:15:30.300Z,0
2017-08-05T01:16:29.890Z,0
2017-08-05T01:17:30.774Z,0
2017-08-05T01:18:32.106Z,0
2017-08-05T01:19:25.904Z,0
2017-08-05T01:20:25.922Z,0
2017-08-05T01:21:20.965Z,0
2017-08-05T01:22:16.001Z,0
2017-08-05T01:23:16.986Z,0
2017-08-05T01:24:18.149Z,0
2017-08-05T01:25:13.131Z,0
2017-08-05T01:26:07.105Z,0
2017-08-05T01:27:07.211Z,0
2017-08-05T01:28:02.155Z,0
2017-08-05T01:29:02.276Z,0
2017-08-05T01:29:56.948Z,0
2017-08-05T01:30:56.747Z,0
2017-08-05T01:31:51.531Z,0
2017-08-05T01:32:46.482Z,0
2017-08-05T01:33:46.507Z,0
2017-08-05T01:34:41.421Z,0
2017-08-05T01:35:36.997Z,0
2017-08-05T01:36:36.957Z,0
2017-08-05T01:37:31.617Z,0
2017-08-05T01:38:26.741Z,0
2017-08-05T01:39:27.644Z,0
2017-08-05T01:40:28.621Z,0
2017-08-05T01:41:23.889Z,0
2017-08-05T01:42:17.709Z,0
2017-08-05T01:43:17.746Z,0
2017-08-05T01:44:17.773Z,0
2017-08-05T01:45:12.832Z,0
2017-08-05T01:46:07.322Z,0
2017-08-05T01:47:06.977Z,0
2017-08-05T01:48:01.946Z,0
2017-08-05T01:48:56.900Z,0
2017-08-05T01:49:58.039Z,0
2017-08-05T01:50:58.268Z,0
2017-08-05T01:51:58.214Z,0
2017-08-05T01:52:53.227Z,0
2017-08-05T01:53:47.479Z,0
2017-08-05T01:54:47.210Z,0
2017-08-05T01:55:42.560Z,0
2017-08-05T01:56:42.238Z,0
2017-08-05T01:57:36.314Z,0
2017-08-05T01:58:36.469Z,0
2017-08-05T01:59:31.356Z,0
2017-08-05T02:00:26.436Z,0
2017-08-05T02:01:26.435Z,0
2017-08-05T02:02:21.480Z,0
2017-08-05T02:03:16.696Z,0
2017-08-05T02:04:17.985Z,0
2017-08-05T02:05:17.543Z,0
2017-08-05T02:06:17.586Z,0
2017-08-05T02:07:12.611Z,0
2017-08-05T02:08:06.683Z,0
2017-08-05T02:09:06.838Z,0
2017-08-05T02:10:01.785Z,0
2017-08-05T02:11:01.763Z,0
2017-08-05T02:11:56.178Z,0
2017-08-05T02:12:55.881Z,0
2017-08-05T02:13:50.838Z,0
2017-08-05T02:14:44.820Z,0
2017-08-05T02:15:38.994Z,0
2017-08-05T02:16:28.080Z,0
2017-08-05T02:17:16.036Z,0
2017-08-05T02:18:04.028Z,0
2017-08-05T02:18:52.017Z,0
2017-08-05T02:19:46.106Z,0
2017-08-05T02:20:35.153Z,0
2017-08-05T02:21:23.282Z,0
2017-08-05T02:22:11.248Z,0
2017-08-05T02:23:12.293Z,0
2017-08-05T02:24:07.220Z,0
2017-08-05T02:24:56.731Z,0
2017-08-05T02:25:44.386Z,0
2017-08-05T02:26:33.426Z,0
2017-08-05T02:27:21.448Z,0
2017-08-05T02:28:09.515Z,0
2017-08-05T02:28:58.632Z,0
2017-08-05T02:29:47.104Z,0
2017-08-05T02:30:35.731Z,0
2017-08-05T02:31:30.569Z,0
2017-08-05T02:32:30.898Z,0
2017-08-05T02:33:25.782Z,0
2017-08-05T02:34:20.848Z,0
2017-08-05T02:35:20.972Z,0
2017-08-05T02:36:14.870Z,0
2017-08-05T02:37:09.933Z,0
2017-08-05T02:38:04.025Z,0
2017-08-05T02:38:58.995Z,0
2017-08-05T02:39:47.036Z,0
2017-08-05T02:40:36.288Z,0
2017-08-05T02:41:36.102Z,0
2017-08-05T02:42:24.230Z,0
2017-08-05T02:43:12.204Z,0
2017-08-05T02:44:00.239Z,0
2017-08-05T02:44:48.261Z,0
2017-08-05T02:45:37.335Z,0
2017-08-05T02:46:25.270Z,0
2017-08-05T02:47:14.534Z,0
2017-08-05T02:48:02.871Z,0
2017-08-05T02:48:50.535Z,0
2017-08-05T02:49:40.076Z,0
2017-08-05T02:50:27.575Z,0
2017-08-05T02:51:16.632Z,0
2017-08-05T02:52:04.617Z,0
2017-08-05T02:52:52.605Z,0
2017-08-05T02:53:40.723Z,0
2017-08-05T02:54:29.783Z,0
2017-08-05T02:55:17.763Z,0
2017-08-05T02:56:05.772Z,0
2017-08-05T02:56:54.871Z,0
2017-08-05T02:57:42.914Z,0
2017-08-05T02:58:30.930Z,0
2017-08-05T02:59:20.030Z,0
2017-08-05T03:00:08.577Z,0
2017-08-05T03:00:56.129Z,0
2017-08-05T03:01:50.130Z,0
2017-08-05T03:02:44.281Z,0
2017-08-05T03:03:38.329Z,0
2017-08-05T03:04:26.217Z,0
2017-08-05T03:05:14.310Z,0
2017-08-05T03:06:03.411Z,0
2017-08-05T03:06:51.395Z,0
2017-08-05T03:07:45.434Z,0
2017-08-05T03:08:33.543Z,0
2017-08-05T03:09:28.422Z,0
2017-08-05T03:10:28.571Z,0
2017-08-05T03:11:28.538Z,0
2017-08-05T03:12:28.668Z,0
2017-08-05T03:13:28.692Z,0
2017-08-05T03:14:22.608Z,0
2017-08-05T03:15:23.638Z,0
2017-08-05T03:16:23.839Z,4
2017-08-05T03:17:23.986Z,4
2017-08-05T03:18:18.831Z,0
2017-08-05T03:19:13.322Z,0
2017-08-05T03:20:12.832Z,0
2017-08-05T03:21:08.188Z,4
2017-08-05T03:22:02.968Z,4
2017-08-05T03:23:03.052Z,0
2017-08-05T03:23:58.005Z,4
2017-08-05T03:24:53.033Z,4
2017-08-05T03:25:53.161Z,4
2017-08-05T03:26:48.151Z,4
2017-08-05T03:27:48.176Z,8
2017-08-05T03:28:48.148Z,8
2017-08-05T03:29:48.514Z,8
2017-08-05T03:30:42.178Z,8
2017-08-05T03:31:42.724Z,8
2017-08-05T03:32:37.312Z,8
2017-08-05T03:33:37.361Z,12
2017-08-05T03:34:37.485Z,16
2017-08-05T03:35:37.421Z,16
2017-08-05T03:36:31.460Z,20
2017-08-05T03:37:31.506Z,24
2017-08-05T03:38:26.592Z,24
2017-08-05T03:39:21.899Z,28
2017-08-05T03:40:22.612Z,28
2017-08-05T03:41:22.609Z,36
2017-08-05T03:42:22.631Z,36
2017-08-05T03:43:23.108Z,40
2017-08-05T03:44:23.697Z,44
2017-08-05T03:45:23.793Z,48
2017-08-05T03:46:11.829Z,52
2017-08-05T03:47:00.091Z,56
2017-08-05T03:47:48.339Z,64
2017-08-05T03:48:36.220Z,72
2017-08-05T03:49:25.431Z,80
2017-08-05T03:50:14.254Z,92
2017-08-05T03:51:02.500Z,100
2017-08-05T03:51:50.539Z,116
2017-08-05T03:52:38.485Z,128
2017-08-05T03:53:27.556Z,148
2017-08-05T03:54:16.735Z,168
2017-08-05T03:55:10.730Z,188
2017-08-05T03:55:59.656Z,208
2017-08-05T03:56:47.848Z,220
2017-08-05T03:57:35.867Z,232
2017-08-05T03:58:29.924Z,240
2017-08-05T03:59:24.899Z,260
2017-08-05T04:00:25.081Z,280
2017-08-05T04:01:18.957Z,304
2017-08-05T04:02:14.066Z,320
2017-08-05T04:03:02.045Z,336
2017-08-05T04:03:51.206Z,348
2017-08-05T04:04:39.135Z,368
2017-08-05T04:05:28.295Z,396
2017-08-05T04:06:16.298Z,436
2017-08-05T04:07:04.376Z,480
2017-08-05T04:07:58.303Z,520
2017-08-05T04:08:46.342Z,548
2017-08-05T04:09:34.410Z,552
2017-08-05T04:10:28.689Z,548
2017-08-05T04:11:17.668Z,536
2017-08-05T04:12:05.660Z,536
2017-08-05T04:12:54.628Z,544
2017-08-05T04:13:42.748Z,560
2017-08-05T04:14:30.719Z,576
2017-08-05T04:15:19.750Z,584
2017-08-05T04:16:07.786Z,584
2017-08-05T04:16:55.905Z,576
2017-08-05T04:17:44.902Z,564
2017-08-05T04:18:32.923Z,564
2017-08-05T04:19:20.960Z,576
2017-08-05T04:20:09.605Z,600
2017-08-05T04:20:58.198Z,636
2017-08-05T04:21:47.197Z,656
2017-08-05T04:22:35.789Z,672
2017-08-05T04:23:24.096Z,692
2017-08-05T04:24:11.797Z,720
2017-08-05T04:24:59.846Z,756
2017-08-05T04:25:49.023Z,792
2017-08-05T04:26:43.246Z,796
2017-08-05T04:27:31.102Z,792
2017-08-05T04:28:19.097Z,812
2017-08-05T04:29:07.026Z,860
2017-08-05T04:29:56.196Z,940
2017-08-05T04:30:44.110Z,1012
2017-08-05T04:31:32.245Z,1092
2017-08-05T04:32:21.199Z,1148
2017-08-05T04:33:09.335Z,1188
2017-08-05T04:33:58.350Z,1232
2017-08-05T04:34:46.294Z,1276
2017-08-05T04:35:34.391Z,1296
2017-08-05T04:36:23.994Z,1272
2017-08-05T04:37:11.573Z,1232
2017-08-05T04:37:59.567Z,1200
2017-08-05T04:38:47.709Z,1192
2017-08-05T04:39:36.711Z,1192
2017-08-05T04:40:24.727Z,1192
2017-08-05T04:41:14.088Z,1200
2017-08-05T04:42:01.896Z,1200
2017-08-05T04:42:56.273Z,1224
2017-08-05T04:43:55.902Z,1296
2017-08-05T04:44:50.898Z,1344
2017-08-05T04:45:45.891Z,1356
2017-08-05T04:46:40.086Z,1356
2017-08-05T04:47:39.977Z,1388
2017-08-05T04:48:35.065Z,1420
2017-08-05T04:49:30.077Z,1444
2017-08-05T04:50:30.169Z,1480
2017-08-05T04:51:25.694Z,1532
2017-08-05T04:52:20.264Z,1624
2017-08-05T04:53:14.243Z,1752
2017-08-05T04:54:15.877Z,1892
2017-08-05T04:55:15.419Z,1920
2017-08-05T04:56:15.363Z,1892
2017-08-05T04:57:10.506Z,1864
2017-08-05T04:58:10.638Z,1880
2017-08-05T04:59:10.662Z,1968
2017-08-05T05:00:10.535Z,2096
2017-08-05T05:01:10.576Z,2316
2017-08-05T05:02:05.443Z,2600
2017-08-05T05:03:00.557Z,2896
2017-08-05T05:03:49.650Z,3160
2017-08-05T05:04:49.766Z,3448
2017-08-05T05:05:49.669Z,3632
2017-08-05T05:06:49.768Z,3740
2017-08-05T05:07:38.790Z,3732
2017-08-05T05:08:32.792Z,3664
2017-08-05T05:09:33.910Z,3560
2017-08-05T05:10:33.961Z,3448
2017-08-05T05:11:22.971Z,3396
2017-08-05T05:12:23.087Z,3392
2017-08-05T05:13:23.114Z,3448
2017-08-05T05:14:17.559Z,3444
2017-08-05T05:15:12.480Z,3360
2017-08-05T05:16:01.590Z,3240
2017-08-05T05:16:49.672Z,3104
2017-08-05T05:17:49.816Z,3048
2017-08-05T05:18:44.806Z,3104
2017-08-05T05:19:38.583Z,3124
2017-08-05T05:20:39.741Z,2980
2017-08-05T05:21:33.787Z,2768
2017-08-05T05:22:21.674Z,2608
2017-08-05T05:23:10.952Z,2500
2017-08-05T05:24:04.911Z,2400
2017-08-05T05:24:59.940Z,2316
2017-08-05T05:25:48.839Z,2288
2017-08-05T05:26:42.983Z,2328
2017-08-05T05:27:43.189Z,2428
2017-08-05T05:28:31.141Z,2540
2017-08-05T05:29:31.080Z,2692
2017-08-05T05:30:26.213Z,2916
2017-08-05T05:31:26.186Z,3000
2017-08-05T05:32:26.214Z,3140
2017-08-05T05:33:14.380Z,3244
2017-08-05T05:34:09.497Z,3224
2017-08-05T05:35:09.360Z,3140
2017-08-05T05:35:57.376Z,3128
2017-08-05T05:36:52.390Z,3204
2017-08-05T05:37:47.525Z,3356
2017-08-05T05:38:41.569Z,3504
2017-08-05T05:39:42.684Z,3532
2017-08-05T05:40:43.367Z,3464
2017-08-05T05:41:37.217Z,3280
2017-08-05T05:42:37.296Z,3028
2017-08-05T05:43:32.342Z,2796
2017-08-05T05:44:27.612Z,2608
2017-08-05T05:45:21.668Z,2500
2017-08-05T05:46:22.458Z,2504
2017-08-05T05:47:23.908Z,2880
2017-08-05T05:48:18.496Z,3848
2017-08-05T05:49:19.125Z,4792
2017-08-05T05:50:24.630Z,5012
2017-08-05T05:51:19.643Z,5252
2017-08-05T05:52:14.139Z,5904
2017-08-05T05:53:13.768Z,6604
2017-08-05T05:54:08.813Z,7076
2017-08-05T05:55:03.349Z,7428
2017-08-05T05:56:03.328Z,7288
2017-08-05T05:56:56.926Z,6704
2017-08-05T05:57:57.345Z,6336
2017-08-05T05:58:46.050Z,6216
2017-08-05T05:59:39.945Z,6144
2017-08-05T06:00:40.464Z,6164
2017-08-05T06:01:35.190Z,6108
2017-08-05T06:02:29.131Z,6060
2017-08-05T06:03:24.075Z,6036
2017-08-05T06:04:19.737Z,6012
2017-08-05T06:05:19.258Z,6088
2017-08-05T06:06:14.236Z,6184
2017-08-05T06:07:08.329Z,6136
2017-08-05T06:08:02.901Z,6012
2017-08-05T06:08:57.439Z,5864
2017-08-05T06:09:45.427Z,5964
2017-08-05T06:10:33.505Z,6388
2017-08-05T06:11:33.540Z,6924
2017-08-05T06:12:28.623Z,7564
2017-08-05T06:13:22.682Z,8116
2017-08-05T06:14:23.893Z,8644
2017-08-05T06:15:18.669Z,8608
2017-08-05T06:16:18.709Z,8216
2017-08-05T06:17:19.127Z,8332
2017-08-05T06:18:18.727Z,9040
2017-08-05T06:19:19.411Z,10112
2017-08-05T06:20:19.273Z,10804
2017-08-05T06:21:19.289Z,11788
2017-08-05T06:22:18.902Z,12320
2017-08-05T06:23:25.157Z,13228
2017-08-05T06:24:20.742Z,13024
2017-08-05T06:25:13.982Z,12484
2017-08-05T06:26:14.102Z,12904
2017-08-05T06:27:09.549Z,13712
2017-08-05T06:28:04.392Z,13472
2017-08-05T06:28:58.354Z,12648
2017-08-05T06:29:53.680Z,12276
2017-08-05T06:30:47.322Z,12116
2017-08-05T06:31:48.243Z,11404
2017-08-05T06:32:48.316Z,11836
2017-08-05T06:33:43.773Z,13156
2017-08-05T06:34:38.915Z,13812
2017-08-05T06:35:38.993Z,13868
2017-08-05T06:36:33.850Z,13112
2017-08-05T06:37:27.575Z,11720
2017-08-05T06:38:28.169Z,10184
2017-08-05T06:39:28.030Z,9412
2017-08-05T06:40:16.366Z,8640
2017-08-05T06:41:04.307Z,7612
2017-08-05T06:41:52.315Z,7340
2017-08-05T06:42:47.312Z,7372
2017-08-05T06:43:41.308Z,7056
2017-08-05T06:44:35.374Z,7036
2017-08-05T06:45:24.466Z,6704
2017-08-05T06:46:13.573Z,6680
2017-08-05T06:47:01.590Z,6548
2017-08-05T06:47:55.575Z,6848
2017-08-05T06:48:49.627Z,6448
2017-08-05T06:49:44.725Z,6544
2017-08-05T06:50:44.749Z,7344
2017-08-05T06:51:44.750Z,7464
2017-08-05T06:52:39.760Z,7876
2017-08-05T06:53:33.866Z,7900
2017-08-05T06:54:27.859Z,7828
2017-08-05T06:55:15.947Z,7824
2017-08-05T06:56:10.084Z,8444
2017-08-05T06:57:04.012Z,9104
2017-08-05T06:57:58.040Z,9348
2017-08-05T06:58:47.104Z,9932
2017-08-05T06:59:35.194Z,10588
2017-08-05T07:00:36.125Z,10828
2017-08-05T07:01:24.397Z,10264
2017-08-05T07:02:18.350Z,9432
2017-08-05T07:03:06.305Z,8596
2017-08-05T07:03:55.345Z,7904
2017-08-05T07:04:44.421Z,7704
2017-08-05T07:05:39.350Z,7824
2017-08-05T07:06:39.543Z,8128
2017-08-05T07:07:34.584Z,8040
2017-08-05T07:08:23.667Z,8300
2017-08-05T07:09:11.613Z,8404
2017-08-05T07:09:59.699Z,8792
2017-08-05T07:10:53.689Z,9100
2017-08-05T07:11:48.749Z,9212
2017-08-05T07:12:36.799Z,9232
2017-08-05T07:13:25.876Z,9200
2017-08-05T07:14:14.789Z,9488
2017-08-05T07:15:03.832Z,9832
2017-08-05T07:15:53.036Z,10428
2017-08-05T07:16:53.033Z,10884
2017-08-05T07:17:42.091Z,11028
2017-08-05T07:18:30.032Z,11260
2017-08-05T07:19:18.134Z,11680
2017-08-05T07:20:07.329Z,11896
2017-08-05T07:20:55.290Z,11832
2017-08-05T07:21:43.260Z,11452
2017-08-05T07:22:32.396Z,10812
2017-08-05T07:23:32.383Z,9792
2017-08-05T07:24:26.419Z,9248
2017-08-05T07:25:27.505Z,9196
2017-08-05T07:26:21.561Z,9436
2017-08-05T07:27:21.518Z,9668
2017-08-05T07:28:16.594Z,9784
2017-08-05T07:29:04.632Z,9820
2017-08-05T07:30:04.701Z,9928
2017-08-05T07:30:58.696Z,9872
2017-08-05T07:31:58.750Z,9352
2017-08-05T07:32:58.733Z,8876
2017-08-05T07:34:04.795Z,8712
2017-08-05T07:34:59.819Z,9152
2017-08-05T07:35:47.902Z,9864
2017-08-05T07:36:35.887Z,10724
2017-08-05T07:37:24.978Z,11428
2017-08-05T07:38:20.003Z,12168
2017-08-05T07:39:14.293Z,12728
2017-08-05T07:40:08.066Z,13372
2017-08-05T07:40:57.198Z,14044
2017-08-05T07:41:51.313Z,14160
2017-08-05T07:42:40.308Z,14280
2017-08-05T07:43:40.233Z,14240
2017-08-05T07:44:29.361Z,14476
2017-08-05T07:45:18.322Z,15172
2017-08-05T07:46:12.389Z,16672
2017-08-05T07:47:01.545Z,17824
2017-08-05T07:47:56.535Z,18816
2017-08-05T07:48:45.514Z,19200
2017-08-05T07:49:39.694Z,19040
2017-08-05T07:50:33.688Z,17952
2017-08-05T07:51:27.747Z,16704
2017-08-05T07:52:22.744Z,15384
2017-08-05T07:53:16.794Z,14568
2017-08-05T07:54:11.841Z,13128
2017-08-05T07:55:06.876Z,11896
2017-08-05T07:56:01.866Z,10716
2017-08-05T07:56:56.947Z,9544
2017-08-05T07:57:57.112Z,9064
2017-08-05T07:58:52.019Z,9268
2017-08-05T07:59:52.044Z,9256
2017-08-05T08:00:53.026Z,9560
2017-08-05T08:01:54.100Z,9876
2017-08-05T08:02:48.077Z,10188
2017-08-05T08:03:49.237Z,10752
2017-08-05T08:04:49.242Z,11816
2017-08-05T08:05:36.932Z,12912
2017-08-05T08:06:32.254Z,13596
2017-08-05T08:07:26.363Z,14244
2017-08-05T08:08:20.312Z,15012
2017-08-05T08:09:20.584Z,15656
2017-08-05T08:10:20.563Z,15840
2017-08-05T08:11:08.380Z,16004
2017-08-05T08:11:56.807Z,16832
2017-08-05T08:12:45.718Z,17760
2017-08-05T08:13:34.695Z,18528
2017-08-05T08:14:28.711Z,18784
2017-08-05T08:15:17.823Z,18464
2017-08-05T08:16:11.920Z,17536
2017-08-05T08:17:06.840Z,16164
2017-08-05T08:18:06.967Z,15084
2017-08-05T08:19:01.974Z,14184
2017-08-05T08:19:57.054Z,13596
2017-08-05T08:20:57.014Z,13088
2017-08-05T08:21:51.803Z,13080
2017-08-05T08:22:52.136Z,13564
2017-08-05T08:23:53.216Z,13824
2017-08-05T08:24:54.307Z,13744
2017-08-05T08:25:54.271Z,13924
2017-08-05T08:26:54.212Z,14996
2017-08-05T08:27:48.124Z,16928
2017-08-05T08:28:49.285Z,18464
2017-08-05T08:29:49.479Z,18816
2017-08-05T08:30:44.418Z,19200
2017-08-05T08:31:39.356Z,19456
2017-08-05T08:32:39.335Z,19584
2017-08-05T08:33:33.139Z,19904
2017-08-05T08:34:33.383Z,20192
2017-08-05T08:35:33.252Z,20288
2017-08-05T08:36:22.737Z,19360
2017-08-05T08:37:11.689Z,17920
2017-08-05T08:38:06.651Z,16064
2017-08-05T08:39:06.656Z,15180
2017-08-05T08:40:01.880Z,15204
2017-08-05T08:40:55.843Z,15460
2017-08-05T08:41:45.004Z,16196
2017-08-05T08:42:45.037Z,16992
2017-08-05T08:43:39.702Z,17216
2017-08-05T08:44:28.131Z,16832
2017-08-05T08:45:27.896Z,15636
2017-08-05T08:46:15.840Z,15328
2017-08-05T08:47:04.307Z,15116
2017-08-05T08:47:53.348Z,15076
2017-08-05T08:48:48.133Z,15516
2017-08-05T08:49:36.373Z,16832
2017-08-05T08:50:25.454Z,18144
2017-08-05T08:51:13.566Z,18368
2017-08-05T08:52:01.514Z,17824
2017-08-05T08:52:50.513Z,17280
2017-08-05T08:53:45.579Z,16328
2017-08-05T08:54:39.692Z,15892
2017-08-05T08:55:28.585Z,16204
2017-08-05T08:56:17.822Z,17120
2017-08-05T08:57:12.868Z,18304
2017-08-05T08:58:12.679Z,19488
2017-08-05T08:59:00.805Z,20512
2017-08-05T08:59:56.065Z,22496
2017-08-05T09:00:55.628Z,24800
2017-08-05T09:01:55.998Z,27808
2017-08-05T09:02:55.830Z,29792
2017-08-05T09:03:56.057Z,31040
2017-08-05T09:04:51.102Z,31872
2017-08-05T09:05:46.183Z,31808
2017-08-05T09:06:40.261Z,31040
2017-08-05T09:07:28.409Z,30880
2017-08-05T09:08:29.381Z,30688
2017-08-05T09:09:30.319Z,29536
2017-08-05T09:10:24.397Z,28128
2017-08-05T09:11:18.349Z,26336
2017-08-05T09:12:18.498Z,24192
2017-08-05T09:13:18.506Z,23296
2017-08-05T09:14:07.627Z,23136
2017-08-05T09:15:01.703Z,23520
2017-08-05T09:15:55.672Z,24000
2017-08-05T09:16:56.713Z,23968
2017-08-05T09:17:56.736Z,23936
2017-08-05T09:18:56.787Z,23520
2017-08-05T09:19:45.798Z,22816
2017-08-05T09:20:40.034Z,21888
2017-08-05T09:21:34.892Z,21056
2017-08-05T09:22:22.742Z,21152
2017-08-05T09:23:16.974Z,21408
2017-08-05T09:24:11.057Z,21216
2017-08-05T09:25:00.047Z,20320
2017-08-05T09:25:54.076Z,18720
2017-08-05T09:26:43.069Z,17152
2017-08-05T09:27:37.354Z,15232
2017-08-05T09:28:26.360Z,13660
2017-08-05T09:29:20.414Z,11988
2017-08-05T09:30:14.398Z,11024
2017-08-05T09:31:02.470Z,11272
2017-08-05T09:31:51.515Z,12020
2017-08-05T09:32:46.600Z,12304
2017-08-05T09:33:41.504Z,11760
2017-08-05T09:34:36.762Z,11352
2017-08-05T09:35:30.695Z,12092
2017-08-05T09:36:30.760Z,14612
2017-08-05T09:37:25.802Z,18016
2017-08-05T09:38:19.833Z,20448
2017-08-05T09:39:13.884Z,20928
2017-08-05T09:40:07.985Z,18976
2017-08-05T09:41:07.908Z,16024
2017-08-05T09:42:02.982Z,14460
2017-08-05T09:42:58.010Z,15060
2017-08-05T09:43:52.035Z,17440
2017-08-05T09:44:53.123Z,20512
2017-08-05T09:45:48.216Z,21312
2017-08-05T09:46:42.192Z,19392
2017-08-05T09:47:30.229Z,16992
2017-08-05T09:48:24.299Z,13592
2017-08-05T09:49:13.284Z,12260
2017-08-05T09:50:08.262Z,13364
2017-08-05T09:51:08.438Z,15048
2017-08-05T09:51:57.467Z,16080
2017-08-05T09:52:45.497Z,17920
2017-08-05T09:53:34.504Z,20000
2017-08-05T09:54:34.635Z,23072
2017-08-05T09:55:23.743Z,24704
2017-08-05T09:56:12.697Z,25824
2017-08-05T09:57:06.736Z,26496
2017-08-05T09:58:00.792Z,27008
2017-08-05T09:58:49.826Z,27296
2017-08-05T09:59:37.909Z,27456
2017-08-05T10:00:27.009Z,28416
2017-08-05T10:01:22.097Z,30176
2017-08-05T10:02:22.004Z,33984
2017-08-05T10:03:11.169Z,37312
2017-08-05T10:04:00.079Z,38976
2017-08-05T10:04:54.229Z,39296
2017-08-05T10:05:48.153Z,38176
2017-08-05T10:06:37.271Z,37248
2017-08-05T10:07:25.406Z,37920
2017-08-05T10:08:20.300Z,40512
2017-08-05T10:09:15.575Z,43328
2017-08-05T10:10:10.581Z,48416
2017-08-05T10:11:04.563Z,48832
2017-08-05T10:12:05.640Z,42176
2017-08-05T10:13:05.651Z,38368
2017-08-05T10:13:53.765Z,37696
2017-08-05T10:14:47.718Z,39680
2017-08-05T10:15:36.862Z,44192
2017-08-05T10:16:31.819Z,44480
2017-08-05T10:17:19.961Z,43392
2017-08-05T10:18:07.944Z,39712
2017-08-05T10:18:56.094Z,38272
2017-08-05T10:19:56.024Z,40864
2017-08-05T10:20:45.051Z,77152
2017-08-05T10:21:33.957Z,56960
2017-08-05T10:22:29.354Z,58656
2017-08-05T10:23:23.280Z,78816
2017-08-05T10:24:17.312Z,83808
2017-08-05T10:25:11.396Z,50688
2017-08-05T10:26:06.437Z,44576
2017-08-05T10:27:00.461Z,40352
2017-08-05T10:28:00.503Z,37248
2017-08-05T10:28:49.596Z,36128
2017-08-05T10:29:49.584Z,35168
2017-08-05T10:30:49.738Z,38720
2017-08-05T10:31:43.758Z,43968
2017-08-05T10:32:31.770Z,45568
2017-08-05T10:33:26.884Z,42496
2017-08-05T10:34:20.898Z,40288
2017-08-05T10:35:09.887Z,38624
2017-08-05T10:35:58.033Z,35680
2017-08-05T10:36:52.079Z,31616
2017-08-05T10:37:41.079Z,28896
2017-08-05T10:38:30.335Z,27808
2017-08-05T10:39:30.174Z,27744
2017-08-05T10:40:25.240Z,28192
2017-08-05T10:41:19.317Z,28512
2017-08-05T10:42:25.235Z,29312
2017-08-05T10:43:14.406Z,30560
2017-08-05T10:44:09.376Z,32256
2017-08-05T10:45:09.518Z,34912
2017-08-05T10:46:03.596Z,36736
2017-08-05T10:46:57.599Z,36960
2017-08-05T10:47:46.592Z,35648
2017-08-05T10:48:41.683Z,34144
2017-08-05T10:49:36.788Z,33504
2017-08-05T10:50:30.792Z,33440
2017-08-05T10:51:31.974Z,32736
2017-08-05T10:52:19.955Z,31264
2017-08-05T10:53:19.909Z,29216
2017-08-05T10:54:20.985Z,27872
2017-08-05T10:55:16.212Z,27584
2017-08-05T10:56:16.174Z,28064
2017-08-05T10:57:22.150Z,30496
2017-08-05T10:58:17.134Z,34592
2017-08-05T10:59:11.184Z,38912
2017-08-05T11:00:12.223Z,40128
2017-08-05T11:01:13.398Z,39136
2017-08-05T11:02:13.432Z,38560
2017-08-05T11:03:07.404Z,38432
2017-08-05T11:04:01.527Z,38560
2017-08-05T11:04:50.567Z,39072
2017-08-05T11:05:44.560Z,39328
2017-08-05T11:06:38.645Z,39328
2017-08-05T11:07:33.666Z,39328
2017-08-05T11:08:28.730Z,40000
2017-08-05T11:09:22.782Z,41728
2017-08-05T11:10:11.868Z,43200
2017-08-05T11:11:05.870Z,43424
2017-08-05T11:12:06.002Z,43968
2017-08-05T11:13:06.025Z,43840
2017-08-05T11:14:06.071Z,40544
2017-08-05T11:15:06.147Z,39104
2017-08-05T11:15:55.134Z,39328
2017-08-05T11:16:43.363Z,42432
2017-08-05T11:17:37.251Z,42528
2017-08-05T11:18:26.290Z,42880
2017-08-05T11:19:21.426Z,44640
2017-08-05T11:20:15.483Z,43808
2017-08-05T11:21:10.545Z,43392
2017-08-05T11:22:04.462Z,41888
2017-08-05T11:22:59.668Z,36416
2017-08-05T11:24:00.543Z,31872
2017-08-05T11:24:55.665Z,30336
2017-08-05T11:25:44.716Z,29504
2017-08-05T11:26:38.766Z,28960
2017-08-05T11:27:38.863Z,29952
2017-08-05T11:28:28.176Z,30848
2017-08-05T11:29:16.851Z,33056
2017-08-05T11:30:11.971Z,46208
2017-08-05T11:31:06.003Z,36576
2017-08-05T11:32:00.070Z,30720
2017-08-05T11:32:48.181Z,26688
2017-08-05T11:33:37.268Z,23904
2017-08-05T11:34:32.217Z,22976
2017-08-05T11:35:26.318Z,24640
2017-08-05T11:36:21.296Z,28768
2017-08-05T11:37:16.444Z,32736
2017-08-05T11:38:05.381Z,34400
2017-08-05T11:38:59.595Z,32544
2017-08-05T11:39:48.605Z,27616
2017-08-05T11:40:37.615Z,23904
2017-08-05T11:41:26.583Z,22816
2017-08-05T11:42:21.754Z,25952
2017-08-05T11:43:10.709Z,39168
2017-08-05T11:44:04.971Z,37536
2017-08-05T11:44:53.813Z,36032
2017-08-05T11:45:47.894Z,42720
2017-08-05T11:46:42.933Z,35840
2017-08-05T11:47:44.052Z,36000
2017-08-05T11:48:38.103Z,35584
2017-08-05T11:49:32.129Z,34240
2017-08-05T11:50:26.200Z,33568
2017-08-05T11:51:20.219Z,33600
2017-08-05T11:52:14.369Z,32096
2017-08-05T11:53:09.314Z,31808
2017-08-05T11:54:09.359Z,34560
2017-08-05T11:55:03.514Z,34592
2017-08-05T11:56:03.491Z,32512
2017-08-05T11:56:58.577Z,32832
2017-08-05T11:57:52.552Z,31072
2017-08-05T11:58:46.633Z,30400
2017-08-05T11:59:40.687Z,32768
2017-08-05T12:00:34.700Z,34272
2017-08-05T12:01:34.840Z,43488
2017-08-05T12:02:28.797Z,60288
2017-08-05T12:03:23.912Z,107232
2017-08-05T12:04:12.927Z,41568
2017-08-05T12:05:07.036Z,109888
2017-08-05T12:05:56.033Z,95392
2017-08-05T12:06:51.084Z,54336
2017-08-05T12:07:51.210Z,48992
2017-08-05T12:08:51.161Z,33728
2017-08-05T12:09:45.293Z,105728
2017-08-05T12:10:33.314Z,40832
2017-08-05T12:11:27.309Z,110848
2017-08-05T12:12:21.453Z,112032
2017-08-05T12:13:16.441Z,34240
2017-08-05T12:14:04.595Z,43360
2017-08-05T12:14:59.594Z,107744
2017-08-05T12:15:53.525Z,69664